createdAt,value
2019-05-25T00:00:53.783Z,87.09
2019-05-25T00:03:22.453Z,87.62
2019-05-25T00:05:51.145Z,86.71
2019-05-25T00:08:19.567Z,87.21
2019-05-25T00:10:48.213Z,86.96
2019-05-25T00:13:16.625Z,86.89
2019-05-25T00:15:45.009Z,86.54
2019-05-25T00:18:13.765Z,86.78
2019-05-25T00:20:42.158Z,87.21
2019-05-25T00:23:10.568Z,87.24
2019-05-25T00:25:39.003Z,86.98
2019-05-25T00:28:07.424Z,87.05
2019-05-25T00:30:35.881Z,87.85
2019-05-25T00:33:04.348Z,87.75
2019-05-25T00:35:33.576Z,87.65
2019-05-25T00:38:01.975Z,88.56
2019-05-25T00:40:30.379Z,88.71
2019-05-25T00:42:58.801Z,88.73
2019-05-25T00:45:27.460Z,89.27
2019-05-25T00:47:56.167Z,88.54
2019-05-25T00:50:24.842Z,89.25
2019-05-25T00:52:53.249Z,89.89
2019-05-25T00:55:21.642Z,89.02
2019-05-25T00:57:50.187Z,88.48
2019-05-25T01:00:18.930Z,88.47
2019-05-25T01:02:47.419Z,89.04
2019-05-25T01:05:16.690Z,89.32
2019-05-25T01:07:45.081Z,89.05
2019-05-25T01:10:13.926Z,89.26
2019-05-25T01:12:42.339Z,88.71
2019-05-25T01:15:11.936Z,88.46
2019-05-25T01:17:40.395Z,88.38
2019-05-25T01:20:10.860Z,88.36
2019-05-25T01:22:39.589Z,88.50
2019-05-25T01:25:08.707Z,88.60
2019-05-25T01:27:37.177Z,88.34
2019-05-25T01:30:11.647Z,89.00
2019-05-25T01:32:40.067Z,89.71
2019-05-25T01:35:08.640Z,89.55
2019-05-25T01:37:37.027Z,89.76
2019-05-25T01:40:06.664Z,89.87
2019-05-25T01:42:35.076Z,89.93
2019-05-25T01:45:04.844Z,90.19
2019-05-25T01:47:33.558Z,90.18
2019-05-25T01:50:01.966Z,90.08
2019-05-25T01:52:30.376Z,90.65
2019-05-25T01:55:00.175Z,90.71
2019-05-25T01:57:29.312Z,90.79
2019-05-25T01:59:57.736Z,90.43
2019-05-25T02:02:26.481Z,90.87
2019-05-25T02:04:55.165Z,89.96
2019-05-25T02:07:23.571Z,89.69
2019-05-25T02:09:51.983Z,89.74
2019-05-25T02:12:20.711Z,90.17
2019-05-25T02:14:49.401Z,91.13
2019-05-25T02:17:18.166Z,90.85
2019-05-25T02:19:46.579Z,90.53
2019-05-25T02:22:14.977Z,90.17
2019-05-25T02:24:43.402Z,90.78
2019-05-25T02:27:11.815Z,89.82
2019-05-25T02:29:40.242Z,89.71
2019-05-25T02:32:08.628Z,90.02
2019-05-25T02:34:37.477Z,90.41
2019-05-25T02:37:05.867Z,90.56
2019-05-25T02:39:34.644Z,90.50
2019-05-25T02:42:03.515Z,90.67
2019-05-25T02:44:32.208Z,90.64
2019-05-25T02:47:00.902Z,90.57
2019-05-25T02:49:29.316Z,90.75
2019-05-25T02:51:58.071Z,91.07
2019-05-25T02:54:26.524Z,91.77
2019-05-25T02:56:54.869Z,91.68
2019-05-25T02:59:23.616Z,92.11
2019-05-25T03:01:52.623Z,91.63
2019-05-25T03:04:21.383Z,92.31
2019-05-25T03:06:51.685Z,91.96
2019-05-25T03:09:21.614Z,91.91
2019-05-25T03:11:51.186Z,91.77
2019-05-25T03:14:19.650Z,91.40
2019-05-25T03:16:48.091Z,91.92
2019-05-25T03:19:16.493Z,91.12
2019-05-25T03:21:44.896Z,90.87
2019-05-25T03:24:13.287Z,91.66
2019-05-25T03:26:41.711Z,91.16
2019-05-25T03:29:10.112Z,90.66
2019-05-25T03:31:38.805Z,90.56
2019-05-25T03:34:07.475Z,90.59
2019-05-25T03:36:35.882Z,90.92
2019-05-25T03:39:06.608Z,91.13
2019-05-25T03:41:35.013Z,91.67
2019-05-25T03:44:03.404Z,91.31
2019-05-25T03:46:31.832Z,91.58
2019-05-25T03:49:00.225Z,91.69
2019-05-25T03:51:28.646Z,91.78
2019-05-25T03:53:57.438Z,92.02
2019-05-25T03:56:25.861Z,92.05
2019-05-25T03:58:54.272Z,92.58
2019-05-25T04:01:22.687Z,92.17
2019-05-25T04:03:51.092Z,91.81
2019-05-25T04:06:19.516Z,91.78
2019-05-25T04:08:47.914Z,91.76
2019-05-25T04:11:16.353Z,91.88
2019-05-25T04:13:44.735Z,92.09
2019-05-25T04:16:13.401Z,92.06
2019-05-25T04:18:41.797Z,92.00
2019-05-25T04:21:10.239Z,92.01
2019-05-25T04:23:38.603Z,92.16
2019-05-25T04:26:21.447Z,91.99
2019-05-25T04:28:37.124Z,91.91
2019-05-25T04:31:05.532Z,91.98
2019-05-25T04:33:33.921Z,91.97
2019-05-25T04:36:02.627Z,91.96
2019-05-25T04:38:31.296Z,91.69
2019-05-25T04:40:59.695Z,91.12
2019-05-25T04:43:28.093Z,90.79
2019-05-25T04:45:56.826Z,90.68
2019-05-25T04:48:25.233Z,90.83
2019-05-25T04:50:53.624Z,90.66
2019-05-25T04:53:22.039Z,90.68
2019-05-25T04:55:50.773Z,90.40
2019-05-25T04:58:19.450Z,90.30
2019-05-25T05:00:47.860Z,90.37
2019-05-25T05:03:16.282Z,89.72
2019-05-25T05:05:44.664Z,89.37
2019-05-25T05:08:13.064Z,89.02
2019-05-25T05:10:42.044Z,88.28
2019-05-25T05:13:10.446Z,87.33
2019-05-25T05:15:38.835Z,87.08
2019-05-25T05:18:07.237Z,87.56
2019-05-25T05:20:35.629Z,86.91
2019-05-25T05:23:04.031Z,85.74
2019-05-25T05:25:32.427Z,85.28
2019-05-25T05:28:01.113Z,85.12
2019-05-25T05:30:35.079Z,84.02
2019-05-25T05:33:03.727Z,83.67
2019-05-25T05:35:34.380Z,82.58
2019-05-25T05:38:06.412Z,82.39
2019-05-25T05:40:36.670Z,81.24
2019-05-25T05:43:08.476Z,80.74
2019-05-25T05:45:38.703Z,80.35
2019-05-25T05:48:10.782Z,79.72
2019-05-25T05:50:40.417Z,79.09
2019-05-25T05:53:09.191Z,79.97
2019-05-25T05:55:37.599Z,77.68
2019-05-25T05:58:05.992Z,77.77
2019-05-25T06:00:34.739Z,77.47
2019-05-25T06:03:03.416Z,76.90
2019-05-25T06:05:31.881Z,76.90
2019-05-25T06:08:00.285Z,75.49
2019-05-25T06:10:28.695Z,76.00
2019-05-25T06:12:57.099Z,74.84
2019-05-25T06:15:25.831Z,75.12
2019-05-25T06:17:54.712Z,74.25
2019-05-25T06:20:23.887Z,74.73
2019-05-25T06:22:52.294Z,75.02
2019-05-25T06:25:20.755Z,75.57
2019-05-25T06:27:49.147Z,75.64
2019-05-25T06:30:18.819Z,75.88
2019-05-25T06:32:47.554Z,75.64
2019-05-25T06:35:16.496Z,76.40
2019-05-25T06:37:45.242Z,76.23
2019-05-25T06:40:14.484Z,76.04
2019-05-25T06:42:43.222Z,75.86
2019-05-25T06:45:13.973Z,76.29
2019-05-25T06:47:42.367Z,76.35
2019-05-25T06:50:12.859Z,76.26
2019-05-25T06:52:41.558Z,75.97
2019-05-25T06:55:10.448Z,74.98
2019-05-25T06:57:43.689Z,74.67
2019-05-25T07:00:09.863Z,73.62
2019-05-25T07:02:38.366Z,73.97
2019-05-25T07:05:09.537Z,75.06
2019-05-25T07:07:37.929Z,73.58
2019-05-25T07:10:08.474Z,72.21
2019-05-25T07:12:36.863Z,73.84
2019-05-25T07:15:07.576Z,73.86
2019-05-25T07:17:35.971Z,72.16
2019-05-25T07:20:09.564Z,72.64
2019-05-25T07:22:38.027Z,72.23
2019-05-25T07:25:07.147Z,71.42
2019-05-25T07:27:35.543Z,72.04
2019-05-25T07:30:05.880Z,72.02
2019-05-25T07:32:34.951Z,71.98
2019-05-25T07:35:04.362Z,71.02
2019-05-25T07:37:33.060Z,70.60
2019-05-25T07:40:01.759Z,71.47
2019-05-25T07:42:30.439Z,70.44
2019-05-25T07:44:58.889Z,70.84
2019-05-25T07:47:27.303Z,70.34
2019-05-25T07:49:55.985Z,69.47
2019-05-25T07:52:24.378Z,68.19
2019-05-25T10:15:10.868Z,52.11
2019-05-25T10:18:01.219Z,52.85
2019-05-25T10:20:33.707Z,53.97
2019-05-25T10:23:05.122Z,55.58
2019-05-25T10:25:45.678Z,55.66
2019-05-25T10:28:15.961Z,57.70
2019-05-25T10:30:41.827Z,56.88
2019-05-25T10:33:10.318Z,57.52
2019-05-25T10:35:38.716Z,57.16
2019-05-25T10:38:07.516Z,57.29
2019-05-25T10:40:35.919Z,58.82
2019-05-25T10:43:05.912Z,57.10
2019-05-25T10:45:34.513Z,58.27
2019-05-25T10:48:03.097Z,58.34
2019-05-25T10:50:31.522Z,57.95
2019-05-25T10:53:00.043Z,59.39
2019-05-25T10:55:28.486Z,59.29
2019-05-25T10:57:56.931Z,59.29
2019-05-25T11:00:26.596Z,58.40
2019-05-25T11:02:55.055Z,57.20
2019-05-25T11:05:23.759Z,55.31
2019-05-25T11:07:52.185Z,56.15
2019-05-25T11:10:20.868Z,56.74
2019-05-25T11:12:49.256Z,55.15
2019-05-25T11:15:17.817Z,56.58
2019-05-25T11:17:46.248Z,55.01
2019-05-25T11:20:15.228Z,55.73
2019-05-25T11:22:43.673Z,55.22
2019-05-25T11:25:13.696Z,54.85
2019-05-25T11:27:53.294Z,54.34
2019-05-25T11:30:22.104Z,54.16
2019-05-25T11:32:50.666Z,54.56
2019-05-25T11:35:19.461Z,53.64
2019-05-25T11:37:47.923Z,52.90
2019-05-25T11:40:16.785Z,52.54
2019-05-25T11:42:45.205Z,52.92
2019-05-25T11:45:15.432Z,50.21
2019-05-25T11:47:43.830Z,49.45
2019-05-25T11:50:13.289Z,48.78
2019-05-25T11:52:42.192Z,50.73
2019-05-25T11:55:11.614Z,48.72
2019-05-25T11:57:40.555Z,49.47
2019-05-25T12:00:24.208Z,48.88
2019-05-25T12:02:41.872Z,49.80
2019-05-25T12:05:12.387Z,45.63
2019-05-25T12:07:44.426Z,46.01
2019-05-25T12:10:13.297Z,47.62
2019-05-25T12:12:44.963Z,49.19
2019-05-25T12:15:15.426Z,48.64
2019-05-25T12:17:44.053Z,49.88
2019-05-25T12:20:13.262Z,45.71
2019-05-25T12:22:41.712Z,45.87
2019-05-25T12:25:10.487Z,45.64
2019-05-25T12:27:38.936Z,46.29
2019-05-25T12:30:09.509Z,45.39
2019-05-25T12:32:37.933Z,45.87
2019-05-25T12:35:07.295Z,46.20
2019-05-25T12:37:35.805Z,46.80
2019-05-25T12:40:05.792Z,45.42
2019-05-25T12:42:34.220Z,45.79
2019-05-25T12:45:02.640Z,46.60
2019-05-25T12:47:31.054Z,47.47
2019-05-25T12:49:59.483Z,47.75
2019-05-25T12:52:27.931Z,45.87
2019-05-25T12:54:56.346Z,45.11
2019-05-25T12:57:35.167Z,48.05
2019-05-25T13:00:15.728Z,47.37
2019-05-25T13:02:39.982Z,44.81
2019-05-25T13:05:12.194Z,43.87
2019-05-25T13:07:42.295Z,46.29
2019-05-25T13:10:13.919Z,45.54
2019-05-25T13:12:42.326Z,45.22
2019-05-25T13:15:10.981Z,45.23
2019-05-25T13:17:39.384Z,49.62
2019-05-25T13:20:08.115Z,47.53
2019-05-25T13:22:36.799Z,48.12
2019-05-25T13:25:08.416Z,49.45
2019-05-25T13:27:36.812Z,47.40
2019-05-25T13:30:06.687Z,45.98
2019-05-25T13:32:35.118Z,46.51
2019-05-25T13:35:05.658Z,45.40
2019-05-25T13:37:34.345Z,44.87
2019-05-25T13:40:02.919Z,46.35
2019-05-25T13:42:31.343Z,47.23
2019-05-25T13:44:59.763Z,49.75
2019-05-25T13:47:28.175Z,47.08
2019-05-25T13:49:56.596Z,47.20
2019-05-25T13:52:25.042Z,47.78
2019-05-25T13:54:53.471Z,49.12
2019-05-25T13:57:24.636Z,51.94
2019-05-25T13:59:53.116Z,54.69
2019-05-25T14:02:21.717Z,58.02
2019-05-25T14:04:50.161Z,59.40
2019-05-25T14:07:18.712Z,60.70
2019-05-25T14:09:47.192Z,61.47
2019-05-25T14:12:15.796Z,62.98
2019-05-25T14:14:44.336Z,63.72
2019-05-25T14:17:12.847Z,63.53
2019-05-25T14:19:41.630Z,64.38
2019-05-25T14:22:10.296Z,63.60
2019-05-25T14:24:38.775Z,63.14
2019-05-25T14:27:08.854Z,61.35
2019-05-25T14:29:37.322Z,61.23
2019-05-25T14:32:08.872Z,59.85
2019-05-25T14:34:37.335Z,59.40
2019-05-25T14:37:05.883Z,57.99
2019-05-25T14:39:34.352Z,58.58
2019-05-25T14:42:02.975Z,55.95
2019-05-25T14:44:32.643Z,55.80
2019-05-25T14:47:01.226Z,56.85
2019-05-25T14:49:29.766Z,54.89
2019-05-25T14:51:58.206Z,54.78
2019-05-25T14:54:40.957Z,54.86
2019-05-25T14:56:57.061Z,55.44
2019-05-25T14:59:37.578Z,55.44
2019-05-25T15:02:08.369Z,54.37
2019-05-25T15:04:36.921Z,56.11
2019-05-25T15:09:57.190Z,57.72
2019-05-25T15:12:25.274Z,56.15
2019-05-25T15:14:58.504Z,56.19
2019-05-25T15:17:27.273Z,56.19
2019-05-25T15:22:53.628Z,56.88
2019-05-25T15:25:30.650Z,58.17
2019-05-25T15:28:06.960Z,56.61
2019-05-25T15:30:28.278Z,57.57
2019-05-25T15:32:56.899Z,58.82
2019-05-25T15:35:25.336Z,56.98
2019-05-25T15:37:55.520Z,59.77
2019-05-25T15:40:25.759Z,56.89
2019-05-25T15:42:55.651Z,56.35
2019-05-25T15:45:27.196Z,55.63
2019-05-25T15:51:05.396Z,57.70
2019-05-25T15:53:21.438Z,57.03
2019-05-25T15:55:55.639Z,55.58
2019-05-25T15:58:25.439Z,56.03
2019-05-25T16:00:58.117Z,56.24
2019-05-25T16:03:38.638Z,56.30
2019-05-25T16:05:58.581Z,56.34
2019-05-25T16:08:28.650Z,57.34
2019-05-25T16:10:58.880Z,56.94
2019-05-25T16:13:34.322Z,57.77
2019-05-25T16:16:03.882Z,57.77
2019-05-25T16:18:40.498Z,58.02
2019-05-25T16:22:44.319Z,58.62
2019-05-25T16:23:39.474Z,59.44
2019-05-25T16:26:14.527Z,58.89
2019-05-25T16:28:45.280Z,58.79
2019-05-25T16:31:13.719Z,60.11
2019-05-25T16:33:42.167Z,59.23
2019-05-25T16:36:10.622Z,58.90
2019-05-25T16:38:39.069Z,58.91
2019-05-25T16:41:07.545Z,58.84
2019-05-25T16:43:36.042Z,60.44
2019-05-25T16:46:04.541Z,62.03
2019-05-25T16:48:33.067Z,63.78
2019-05-25T16:51:01.707Z,65.88
2019-05-25T16:53:30.126Z,67.21
2019-05-25T16:55:58.566Z,70.20
2019-05-25T16:58:27.073Z,69.68
2019-05-25T17:00:55.545Z,71.00
2019-05-25T17:03:28.692Z,72.87
2019-05-25T17:06:00.736Z,71.39
2019-05-25T17:08:29.244Z,72.68
2019-05-25T17:10:59.397Z,72.52
2019-05-25T17:13:27.825Z,73.66
2019-05-25T17:15:56.334Z,71.16
2019-05-25T17:18:25.020Z,73.46
2019-05-25T17:20:54.986Z,75.56
2019-05-25T17:23:23.532Z,73.87
2019-05-25T17:25:52.174Z,74.11
2019-05-25T17:28:20.679Z,76.96
2019-05-25T17:30:49.228Z,77.21
2019-05-25T17:33:17.665Z,78.29
2019-05-25T17:35:46.161Z,77.62
2019-05-25T17:41:06.984Z,80.57
2019-05-25T17:45:34.899Z,82.07
2019-05-25T17:46:24.353Z,82.14
2019-05-25T17:48:49.881Z,81.91
2019-05-25T17:51:33.381Z,82.70
2019-05-25T17:53:53.332Z,82.17
2019-05-25T17:59:19.913Z,82.05
2019-05-25T18:07:45.674Z,82.97
2019-05-25T18:13:17.859Z,83.25
2019-05-25T18:21:53.507Z,82.38
2019-05-25T18:37:55.291Z,80.71
2019-05-25T18:43:16.250Z,81.85
2019-05-25T18:45:56.167Z,81.75
2019-05-25T18:48:27.870Z,82.30
2019-05-25T19:30:19.300Z,82.79
2019-05-25T19:32:48.225Z,83.49
2019-05-25T19:35:17.074Z,84.43
2019-05-25T19:38:33.365Z,83.58
2019-05-25T19:40:41.147Z,83.95
2019-05-25T19:43:09.816Z,85.03
2019-05-25T19:45:38.450Z,85.41
2019-05-25T19:48:08.089Z,85.84
2019-05-25T19:51:47.579Z,86.13
2019-05-25T19:53:17.287Z,86.12
2019-05-25T19:55:45.699Z,86.70
2019-05-25T19:58:16.277Z,86.86
2019-05-25T20:00:44.822Z,87.32
2019-05-25T20:03:13.450Z,87.16
2019-05-25T20:05:41.971Z,87.03
2019-05-25T20:08:10.471Z,87.23
2019-05-25T20:10:41.133Z,87.68
2019-05-25T20:13:09.412Z,87.43
2019-05-25T20:15:37.923Z,87.42
2019-05-25T20:18:20.377Z,87.91
2019-05-25T20:20:40.017Z,88.04
2019-05-25T20:23:08.597Z,87.53
2019-05-25T20:25:37.130Z,87.46
2019-05-25T20:28:07.247Z,87.54
2019-05-25T20:30:37.488Z,88.21
2019-05-25T20:33:05.957Z,88.31
2019-05-25T20:35:34.479Z,87.76
2019-05-25T20:38:03.036Z,88.65
2019-05-25T20:40:31.492Z,89.46
2019-05-25T20:42:59.993Z,89.23
2019-05-25T20:45:28.446Z,89.57
2019-05-25T20:47:57.083Z,89.10
2019-05-25T20:50:25.606Z,89.35
2019-05-25T20:52:54.105Z,89.26
2019-05-25T20:55:22.665Z,89.28
2019-05-25T20:57:51.297Z,89.30
2019-05-25T21:00:23.419Z,89.24
2019-05-25T21:03:04.759Z,89.85
2019-05-25T21:05:20.417Z,89.98
2019-05-25T21:07:48.880Z,89.98
2019-05-25T21:10:22.001Z,89.70
2019-05-25T21:12:48.054Z,89.73
2019-05-25T21:15:16.669Z,89.47
2019-05-25T21:17:45.422Z,89.63
2019-05-25T21:20:14.342Z,89.78
2019-05-25T21:22:42.873Z,89.63
2019-05-25T21:25:11.986Z,89.35
2019-05-25T21:27:40.444Z,89.43
2019-05-25T21:30:09.998Z,89.39
2019-05-25T21:32:38.552Z,89.84
2019-05-25T21:35:08.346Z,89.89
2019-05-25T21:37:36.944Z,89.07
2019-05-25T21:40:07.687Z,88.95
2019-05-25T21:42:37.889Z,89.14
2019-05-25T21:45:07.390Z,89.35
2019-05-25T21:47:35.913Z,89.10
2019-05-25T21:50:06.194Z,88.89
2019-05-25T21:52:34.715Z,88.76
2019-05-25T21:55:03.409Z,88.92
2019-05-25T21:57:31.868Z,89.50
2019-05-25T22:00:00.298Z,89.02
2019-05-25T22:02:28.734Z,89.26
2019-05-25T22:04:57.217Z,89.51
2019-05-25T22:07:25.723Z,90.31
2019-05-25T22:09:54.159Z,90.02
2019-05-25T22:12:22.637Z,90.05
2019-05-25T22:14:51.097Z,89.88
2019-05-25T22:17:19.569Z,90.22
2019-05-25T22:19:48.029Z,89.58
2019-05-25T22:22:22.325Z,89.43
2019-05-25T22:24:53.732Z,89.41
2019-05-25T22:27:22.172Z,89.52
2019-05-25T22:29:50.685Z,88.83
2019-05-25T22:32:19.155Z,88.52
2019-05-25T22:34:47.586Z,88.39
2019-05-25T22:37:16.017Z,88.69
2019-05-25T22:39:44.476Z,89.31
2019-05-25T22:42:12.947Z,89.57
2019-05-25T22:44:41.368Z,89.50
2019-05-25T22:47:09.830Z,89.47
2019-05-25T22:49:38.328Z,89.38
2019-05-25T22:52:06.801Z,89.67
2019-05-25T22:54:35.272Z,89.72
2019-05-25T22:57:04.540Z,90.15
2019-05-25T22:59:33.055Z,89.96
2019-05-25T23:02:01.521Z,90.27
2019-05-25T23:04:29.994Z,90.82
2019-05-25T23:06:58.769Z,90.84
2019-05-25T23:09:27.586Z,90.93
2019-05-25T23:11:56.070Z,90.99
2019-05-25T23:14:24.566Z,91.39
2019-05-25T23:16:53.053Z,91.41
2019-05-25T23:19:21.481Z,91.27
2019-05-25T23:21:49.930Z,91.23
2019-05-25T23:24:18.342Z,91.33
2019-05-25T23:26:46.955Z,91.45
2019-05-25T23:29:15.370Z,91.71
2019-05-25T23:31:43.783Z,91.58
2019-05-25T23:34:12.201Z,91.30
2019-05-25T23:36:40.629Z,91.48
2019-05-25T23:39:09.039Z,91.48
2019-05-25T23:41:37.483Z,91.52
2019-05-25T23:44:05.996Z,91.43
2019-05-25T23:46:34.454Z,91.35
2019-05-25T23:49:03.046Z,91.30
2019-05-25T23:51:31.510Z,91.50
2019-05-25T23:53:59.979Z,91.65
2019-05-25T23:56:28.518Z,91.90
2019-05-25T23:58:56.939Z,91.98
